sensor_id;sensor_type;location;lat;lon;timestamp;P1;durP1;ratioP1;P2;durP2;ratioP2
31130;SDS011;20292;50.944;4.034;2022-11-15T00:00:33;44.50;;;24.67;;
31130;SDS011;20292;50.944;4.034;2022-11-15T00:02:59;44.70;;;24.70;;
31130;SDS011;20292;50.944;4.034;2022-11-15T00:05:24;47.90;;;25.17;;
31130;SDS011;20292;50.944;4.034;2022-11-15T00:07:50;38.42;;;24.17;;
31130;SDS011;20292;50.944;4.034;2022-11-15T00:10:16;46.42;;;25.52;;
31130;SDS011;20292;50.944;4.034;2022-11-15T00:12:42;41.70;;;25.42;;
31130;SDS011;20292;50.944;4.034;2022-11-15T00:15:07;45.95;;;24.38;;
31130;SDS011;20292;50.944;4.034;2022-11-15T00:17:33;42.53;;;24.27;;
31130;SDS011;20292;50.944;4.034;2022-11-15T00:19:59;42.33;;;25.30;;
31130;SDS011;20292;50.944;4.034;2022-11-15T00:22:24;40.95;;;25.35;;
31130;SDS011;20292;50.944;4.034;2022-11-15T00:24:55;42.10;;;24.27;;
31130;SDS011;20292;50.944;4.034;2022-11-15T00:27:21;44.33;;;23.55;;
31130;SDS011;20292;50.944;4.034;2022-11-15T00:29:46;42.13;;;24.35;;
31130;SDS011;20292;50.944;4.034;2022-11-15T00:32:12;39.67;;;23.58;;
31130;SDS011;20292;50.944;4.034;2022-11-15T00:34:38;38.63;;;23.08;;
31130;SDS011;20292;50.944;4.034;2022-11-15T00:37:03;40.08;;;23.10;;
31130;SDS011;20292;50.944;4.034;2022-11-15T00:39:30;45.17;;;22.95;;
31130;SDS011;20292;50.944;4.034;2022-11-15T00:41:56;39.38;;;22.75;;
31130;SDS011;20292;50.944;4.034;2022-11-15T00:44:21;32.83;;;21.88;;
31130;SDS011;20292;50.944;4.034;2022-11-15T00:46:47;34.60;;;22.02;;
31130;SDS011;20292;50.944;4.034;2022-11-15T00:49:13;41.10;;;22.63;;
31130;SDS011;20292;50.944;4.034;2022-11-15T00:51:38;33.65;;;21.30;;
31130;SDS011;20292;50.944;4.034;2022-11-15T00:54:04;37.75;;;21.90;;
31130;SDS011;20292;50.944;4.034;2022-11-15T00:56:29;37.47;;;21.45;;
31130;SDS011;20292;50.944;4.034;2022-11-15T00:58:55;39.05;;;21.67;;
31130;SDS011;20292;50.944;4.034;2022-11-15T01:01:21;36.08;;;22.65;;
31130;SDS011;20292;50.944;4.034;2022-11-15T01:03:46;38.60;;;22.05;;
31130;SDS011;20292;50.944;4.034;2022-11-15T01:06:12;40.05;;;22.83;;
31130;SDS011;20292;50.944;4.034;2022-11-15T01:08:41;37.35;;;21.40;;
31130;SDS011;20292;50.944;4.034;2022-11-15T01:11:08;33.85;;;20.48;;
31130;SDS011;20292;50.944;4.034;2022-11-15T01:13:35;37.25;;;21.60;;
31130;SDS011;20292;50.944;4.034;2022-11-15T01:16:06;32.78;;;20.52;;
31130;SDS011;20292;50.944;4.034;2022-11-15T01:18:37;34.17;;;20.98;;
31130;SDS011;20292;50.944;4.034;2022-11-15T01:21:07;34.13;;;20.50;;
31130;SDS011;20292;50.944;4.034;2022-11-15T01:23:37;34.53;;;20.38;;
31130;SDS011;20292;50.944;4.034;2022-11-15T01:26:04;32.00;;;20.30;;
31130;SDS011;20292;50.944;4.034;2022-11-15T01:28:31;35.28;;;20.30;;
31130;SDS011;20292;50.944;4.034;2022-11-15T01:30:59;33.38;;;20.10;;
31130;SDS011;20292;50.944;4.034;2022-11-15T01:33:26;31.27;;;20.08;;
31130;SDS011;20292;50.944;4.034;2022-11-15T01:35:52;34.33;;;21.50;;
31130;SDS011;20292;50.944;4.034;2022-11-15T01:38:17;33.38;;;20.63;;
31130;SDS011;20292;50.944;4.034;2022-11-15T01:40:43;33.70;;;21.33;;
31130;SDS011;20292;50.944;4.034;2022-11-15T01:43:18;38.70;;;21.58;;
31130;SDS011;20292;50.944;4.034;2022-11-15T01:45:45;33.17;;;20.50;;
31130;SDS011;20292;50.944;4.034;2022-11-15T01:48:14;38.83;;;20.55;;
31130;SDS011;20292;50.944;4.034;2022-11-15T01:50:40;35.88;;;20.88;;
31130;SDS011;20292;50.944;4.034;2022-11-15T01:53:05;34.35;;;22.38;;
31130;SDS011;20292;50.944;4.034;2022-11-15T01:55:31;34.10;;;20.35;;
31130;SDS011;20292;50.944;4.034;2022-11-15T01:57:58;36.55;;;19.90;;
31130;SDS011;20292;50.944;4.034;2022-11-15T02:00:26;38.42;;;20.23;;
31130;SDS011;20292;50.944;4.034;2022-11-15T02:02:53;32.35;;;20.27;;
31130;SDS011;20292;50.944;4.034;2022-11-15T02:05:19;31.08;;;19.30;;
31130;SDS011;20292;50.944;4.034;2022-11-15T02:07:45;38.08;;;19.98;;
31130;SDS011;20292;50.944;4.034;2022-11-15T02:10:13;32.03;;;20.13;;
31130;SDS011;20292;50.944;4.034;2022-11-15T02:12:43;34.00;;;19.40;;
31130;SDS011;20292;50.944;4.034;2022-11-15T02:15:09;32.97;;;19.45;;
31130;SDS011;20292;50.944;4.034;2022-11-15T02:28:58;34.72;;;20.10;;
31130;SDS011;20292;50.944;4.034;2022-11-15T02:31:41;37.60;;;20.33;;
31130;SDS011;20292;50.944;4.034;2022-11-15T02:37:39;34.17;;;18.40;;
31130;SDS011;20292;50.944;4.034;2022-11-15T02:40:17;30.25;;;17.85;;
31130;SDS011;20292;50.944;4.034;2022-11-15T02:43:00;32.30;;;18.77;;
31130;SDS011;20292;50.944;4.034;2022-11-15T02:46:06;32.33;;;18.58;;
31130;SDS011;20292;50.944;4.034;2022-11-15T02:48:38;30.38;;;17.45;;
31130;SDS011;20292;50.944;4.034;2022-11-15T02:51:04;35.13;;;17.73;;
31130;SDS011;20292;50.944;4.034;2022-11-15T02:53:30;30.75;;;17.50;;
31130;SDS011;20292;50.944;4.034;2022-11-15T02:55:56;27.95;;;16.70;;
31130;SDS011;20292;50.944;4.034;2022-11-15T02:58:36;35.40;;;18.10;;
31130;SDS011;20292;50.944;4.034;2022-11-15T03:06:42;27.00;;;16.98;;
31130;SDS011;20292;50.944;4.034;2022-11-15T03:12:12;34.80;;;17.90;;
31130;SDS011;20292;50.944;4.034;2022-11-15T03:15:00;34.30;;;17.48;;
31130;SDS011;20292;50.944;4.034;2022-11-15T03:17:30;32.67;;;17.45;;
31130;SDS011;20292;50.944;4.034;2022-11-15T03:20:05;29.95;;;17.65;;
31130;SDS011;20292;50.944;4.034;2022-11-15T03:22:33;30.60;;;16.73;;
31130;SDS011;20292;50.944;4.034;2022-11-15T03:25:04;32.13;;;17.95;;
31130;SDS011;20292;50.944;4.034;2022-11-15T03:27:37;32.65;;;17.15;;
31130;SDS011;20292;50.944;4.034;2022-11-15T03:30:06;32.08;;;16.33;;
31130;SDS011;20292;50.944;4.034;2022-11-15T03:32:44;29.25;;;16.25;;
31130;SDS011;20292;50.944;4.034;2022-11-15T03:35:23;28.25;;;16.17;;
31130;SDS011;20292;50.944;4.034;2022-11-15T03:37:55;27.75;;;14.75;;
31130;SDS011;20292;50.944;4.034;2022-11-15T03:40:33;28.67;;;15.73;;
31130;SDS011;20292;50.944;4.034;2022-11-15T03:43:04;21.98;;;14.73;;
31130;SDS011;20292;50.944;4.034;2022-11-15T03:45:39;23.98;;;13.80;;
31130;SDS011;20292;50.944;4.034;2022-11-15T03:48:12;26.83;;;13.48;;
31130;SDS011;20292;50.944;4.034;2022-11-15T03:50:42;25.75;;;13.88;;
31130;SDS011;20292;50.944;4.034;2022-11-15T03:53:08;21.42;;;13.18;;
31130;SDS011;20292;50.944;4.034;2022-11-15T03:55:34;21.80;;;12.82;;
31130;SDS011;20292;50.944;4.034;2022-11-15T03:58:00;23.85;;;12.80;;
31130;SDS011;20292;50.944;4.034;2022-11-15T04:00:27;22.90;;;12.07;;
31130;SDS011;20292;50.944;4.034;2022-11-15T04:02:53;23.58;;;12.70;;
31130;SDS011;20292;50.944;4.034;2022-11-15T04:05:18;21.33;;;12.18;;
31130;SDS011;20292;50.944;4.034;2022-11-15T04:07:44;25.27;;;11.23;;
31130;SDS011;20292;50.944;4.034;2022-11-15T04:10:10;24.20;;;11.70;;
31130;SDS011;20292;50.944;4.034;2022-11-15T04:12:39;22.80;;;10.90;;
31130;SDS011;20292;50.944;4.034;2022-11-15T04:15:12;19.75;;;10.98;;
31130;SDS011;20292;50.944;4.034;2022-11-15T04:17:43;20.75;;;10.27;;
31130;SDS011;20292;50.944;4.034;2022-11-15T04:20:14;21.55;;;10.60;;
31130;SDS011;20292;50.944;4.034;2022-11-15T04:23:02;25.23;;;10.45;;
31130;SDS011;20292;50.944;4.034;2022-11-15T04:25:49;18.67;;;10.40;;
31130;SDS011;20292;50.944;4.034;2022-11-15T04:28:17;25.05;;;10.05;;
31130;SDS011;20292;50.944;4.034;2022-11-15T04:30:43;19.95;;;10.00;;
31130;SDS011;20292;50.944;4.034;2022-11-15T04:33:08;16.90;;;10.05;;
31130;SDS011;20292;50.944;4.034;2022-11-15T04:35:34;18.92;;;10.05;;
31130;SDS011;20292;50.944;4.034;2022-11-15T04:38:00;20.05;;;9.65;;
31130;SDS011;20292;50.944;4.034;2022-11-15T04:40:27;14.90;;;8.98;;
31130;SDS011;20292;50.944;4.034;2022-11-15T04:42:53;21.67;;;9.98;;
31130;SDS011;20292;50.944;4.034;2022-11-15T04:45:18;17.67;;;9.80;;
31130;SDS011;20292;50.944;4.034;2022-11-15T04:47:44;15.80;;;9.60;;
31130;SDS011;20292;50.944;4.034;2022-11-15T04:50:10;21.55;;;9.20;;
31130;SDS011;20292;50.944;4.034;2022-11-15T04:52:40;18.38;;;8.68;;
31130;SDS011;20292;50.944;4.034;2022-11-15T04:55:15;21.17;;;9.40;;
31130;SDS011;20292;50.944;4.034;2022-11-15T04:57:40;24.15;;;10.05;;
31130;SDS011;20292;50.944;4.034;2022-11-15T05:00:07;15.73;;;8.98;;
31130;SDS011;20292;50.944;4.034;2022-11-15T05:02:34;19.65;;;8.82;;
31130;SDS011;20292;50.944;4.034;2022-11-15T05:05:23;17.33;;;8.48;;
31130;SDS011;20292;50.944;4.034;2022-11-15T05:07:49;15.25;;;8.55;;
31130;SDS011;20292;50.944;4.034;2022-11-15T05:10:15;11.43;;;7.50;;
31130;SDS011;20292;50.944;4.034;2022-11-15T05:12:40;18.23;;;7.93;;
31130;SDS011;20292;50.944;4.034;2022-11-15T05:15:06;16.63;;;8.10;;
31130;SDS011;20292;50.944;4.034;2022-11-15T05:17:32;15.85;;;7.38;;
31130;SDS011;20292;50.944;4.034;2022-11-15T05:19:57;21.90;;;6.88;;
31130;SDS011;20292;50.944;4.034;2022-11-15T05:22:23;22.45;;;7.50;;
31130;SDS011;20292;50.944;4.034;2022-11-15T05:24:49;18.13;;;8.35;;
31130;SDS011;20292;50.944;4.034;2022-11-15T05:27:14;14.60;;;6.63;;
31130;SDS011;20292;50.944;4.034;2022-11-15T05:29:40;16.35;;;7.30;;
31130;SDS011;20292;50.944;4.034;2022-11-15T05:32:06;13.15;;;6.72;;
31130;SDS011;20292;50.944;4.034;2022-11-15T05:34:33;12.88;;;6.78;;
31130;SDS011;20292;50.944;4.034;2022-11-15T05:36:59;20.73;;;9.65;;
31130;SDS011;20292;50.944;4.034;2022-11-15T05:39:25;23.33;;;9.32;;
31130;SDS011;20292;50.944;4.034;2022-11-15T05:41:52;17.13;;;6.30;;
31130;SDS011;20292;50.944;4.034;2022-11-15T05:44:21;10.40;;;5.30;;
31130;SDS011;20292;50.944;4.034;2022-11-15T05:46:48;12.38;;;5.35;;
31130;SDS011;20292;50.944;4.034;2022-11-15T05:49:16;16.08;;;5.35;;
31130;SDS011;20292;50.944;4.034;2022-11-15T05:51:45;13.32;;;4.95;;
31130;SDS011;20292;50.944;4.034;2022-11-15T05:54:13;15.25;;;5.07;;
31130;SDS011;20292;50.944;4.034;2022-11-15T05:56:40;15.82;;;5.03;;
31130;SDS011;20292;50.944;4.034;2022-11-15T05:59:07;11.10;;;4.80;;
31130;SDS011;20292;50.944;4.034;2022-11-15T06:01:34;15.45;;;5.15;;
31130;SDS011;20292;50.944;4.034;2022-11-15T06:03:59;14.68;;;5.07;;
31130;SDS011;20292;50.944;4.034;2022-11-15T06:06:26;12.90;;;5.13;;
31130;SDS011;20292;50.944;4.034;2022-11-15T06:08:52;10.98;;;4.63;;
31130;SDS011;20292;50.944;4.034;2022-11-15T06:11:18;10.45;;;4.70;;
31130;SDS011;20292;50.944;4.034;2022-11-15T06:13:44;14.85;;;5.28;;
31130;SDS011;20292;50.944;4.034;2022-11-15T06:16:09;14.68;;;5.30;;
31130;SDS011;20292;50.944;4.034;2022-11-15T06:18:35;11.07;;;5.20;;
31130;SDS011;20292;50.944;4.034;2022-11-15T06:21:01;12.77;;;5.10;;
31130;SDS011;20292;50.944;4.034;2022-11-15T06:23:27;14.88;;;5.25;;
31130;SDS011;20292;50.944;4.034;2022-11-15T06:25:57;13.15;;;5.30;;
31130;SDS011;20292;50.944;4.034;2022-11-15T06:28:23;12.57;;;5.50;;
31130;SDS011;20292;50.944;4.034;2022-11-15T06:30:49;11.60;;;5.43;;
31130;SDS011;20292;50.944;4.034;2022-11-15T06:33:14;12.27;;;5.55;;
31130;SDS011;20292;50.944;4.034;2022-11-15T06:35:40;9.13;;;5.30;;
31130;SDS011;20292;50.944;4.034;2022-11-15T06:38:07;10.50;;;5.10;;
31130;SDS011;20292;50.944;4.034;2022-11-15T06:40:34;11.82;;;5.10;;
31130;SDS011;20292;50.944;4.034;2022-11-15T06:43:00;16.13;;;5.35;;
31130;SDS011;20292;50.944;4.034;2022-11-15T06:45:26;15.65;;;5.72;;
31130;SDS011;20292;50.944;4.034;2022-11-15T06:47:52;10.80;;;4.93;;
31130;SDS011;20292;50.944;4.034;2022-11-15T06:50:18;17.77;;;6.00;;
31130;SDS011;20292;50.944;4.034;2022-11-15T06:52:43;15.20;;;4.90;;
31130;SDS011;20292;50.944;4.034;2022-11-15T06:55:09;14.23;;;5.35;;
31130;SDS011;20292;50.944;4.034;2022-11-15T06:57:35;20.85;;;6.05;;
31130;SDS011;20292;50.944;4.034;2022-11-15T07:00:03;10.48;;;5.28;;
31130;SDS011;20292;50.944;4.034;2022-11-15T07:02:29;13.88;;;5.35;;
31130;SDS011;20292;50.944;4.034;2022-11-15T07:04:55;14.20;;;5.57;;
31130;SDS011;20292;50.944;4.034;2022-11-15T07:07:21;11.50;;;5.75;;
31130;SDS011;20292;50.944;4.034;2022-11-15T07:09:46;13.70;;;6.05;;
31130;SDS011;20292;50.944;4.034;2022-11-15T07:12:12;13.73;;;6.25;;
31130;SDS011;20292;50.944;4.034;2022-11-15T07:14:38;11.18;;;6.07;;
31130;SDS011;20292;50.944;4.034;2022-11-15T07:17:04;13.77;;;6.03;;
31130;SDS011;20292;50.944;4.034;2022-11-15T07:19:30;14.05;;;7.30;;
31130;SDS011;20292;50.944;4.034;2022-11-15T07:21:55;12.65;;;7.38;;
31130;SDS011;20292;50.944;4.034;2022-11-15T07:24:21;12.90;;;7.20;;
31130;SDS011;20292;50.944;4.034;2022-11-15T07:26:47;14.70;;;7.40;;
31130;SDS011;20292;50.944;4.034;2022-11-15T07:29:12;18.30;;;7.35;;
31130;SDS011;20292;50.944;4.034;2022-11-15T07:31:38;16.30;;;7.63;;
31130;SDS011;20292;50.944;4.034;2022-11-15T07:34:04;18.50;;;8.13;;
31130;SDS011;20292;50.944;4.034;2022-11-15T07:36:29;21.35;;;8.00;;
31130;SDS011;20292;50.944;4.034;2022-11-15T07:38:55;12.75;;;7.72;;
31130;SDS011;20292;50.944;4.034;2022-11-15T07:41:20;20.80;;;8.25;;
31130;SDS011;20292;50.944;4.034;2022-11-15T07:43:50;13.15;;;6.95;;
31130;SDS011;20292;50.944;4.034;2022-11-15T07:46:16;17.85;;;7.05;;
31130;SDS011;20292;50.944;4.034;2022-11-15T07:48:42;20.08;;;7.85;;
31130;SDS011;20292;50.944;4.034;2022-11-15T07:51:09;17.70;;;7.32;;
31130;SDS011;20292;50.944;4.034;2022-11-15T07:53:37;12.73;;;6.28;;
31130;SDS011;20292;50.944;4.034;2022-11-15T07:56:05;11.70;;;6.97;;
31130;SDS011;20292;50.944;4.034;2022-11-15T07:58:32;13.48;;;6.00;;
31130;SDS011;20292;50.944;4.034;2022-11-15T08:00:57;14.15;;;5.72;;
31130;SDS011;20292;50.944;4.034;2022-11-15T08:03:23;10.50;;;4.97;;
31130;SDS011;20292;50.944;4.034;2022-11-15T08:05:52;13.38;;;4.47;;
31130;SDS011;20292;50.944;4.034;2022-11-15T08:08:18;11.15;;;4.10;;
31130;SDS011;20292;50.944;4.034;2022-11-15T08:10:43;9.63;;;3.80;;
31130;SDS011;20292;50.944;4.034;2022-11-15T08:13:10;12.98;;;4.00;;
31130;SDS011;20292;50.944;4.034;2022-11-15T08:15:36;10.85;;;3.75;;
31130;SDS011;20292;50.944;4.034;2022-11-15T08:18:06;6.00;;;2.90;;
31130;SDS011;20292;50.944;4.034;2022-11-15T08:20:37;13.02;;;3.63;;
31130;SDS011;20292;50.944;4.034;2022-11-15T08:23:03;13.48;;;3.92;;
31130;SDS011;20292;50.944;4.034;2022-11-15T08:25:30;8.48;;;2.95;;
31130;SDS011;20292;50.944;4.034;2022-11-15T08:27:59;12.75;;;3.00;;
31130;SDS011;20292;50.944;4.034;2022-11-15T08:30:28;9.07;;;3.42;;
31130;SDS011;20292;50.944;4.034;2022-11-15T08:32:55;11.13;;;3.10;;
31130;SDS011;20292;50.944;4.034;2022-11-15T08:35:22;7.50;;;3.03;;
31130;SDS011;20292;50.944;4.034;2022-11-15T08:37:48;12.75;;;3.00;;
31130;SDS011;20292;50.944;4.034;2022-11-15T08:40:14;10.75;;;2.63;;
31130;SDS011;20292;50.944;4.034;2022-11-15T08:42:40;13.00;;;2.60;;
31130;SDS011;20292;50.944;4.034;2022-11-15T08:45:06;11.48;;;3.58;;
31130;SDS011;20292;50.944;4.034;2022-11-15T08:47:33;9.45;;;2.45;;
31130;SDS011;20292;50.944;4.034;2022-11-15T08:49:59;11.07;;;2.30;;
31130;SDS011;20292;50.944;4.034;2022-11-15T08:52:25;11.20;;;2.67;;
31130;SDS011;20292;50.944;4.034;2022-11-15T08:54:51;6.60;;;2.10;;
31130;SDS011;20292;50.944;4.034;2022-11-15T08:57:16;9.77;;;2.50;;
31130;SDS011;20292;50.944;4.034;2022-11-15T08:59:42;9.07;;;2.17;;
31130;SDS011;20292;50.944;4.034;2022-11-15T09:02:11;13.18;;;3.17;;
31130;SDS011;20292;50.944;4.034;2022-11-15T09:04:43;17.50;;;2.67;;
31130;SDS011;20292;50.944;4.034;2022-11-15T09:07:10;10.23;;;2.10;;
31130;SDS011;20292;50.944;4.034;2022-11-15T09:09:36;11.77;;;2.30;;
31130;SDS011;20292;50.944;4.034;2022-11-15T09:12:02;14.32;;;2.63;;
31130;SDS011;20292;50.944;4.034;2022-11-15T09:14:28;9.80;;;1.95;;
31130;SDS011;20292;50.944;4.034;2022-11-15T09:16:54;10.77;;;2.38;;
31130;SDS011;20292;50.944;4.034;2022-11-15T09:19:20;12.73;;;2.00;;
31130;SDS011;20292;50.944;4.034;2022-11-15T09:21:46;10.15;;;1.85;;
31130;SDS011;20292;50.944;4.034;2022-11-15T09:24:11;5.95;;;1.85;;
31130;SDS011;20292;50.944;4.034;2022-11-15T09:26:37;8.82;;;1.83;;
31130;SDS011;20292;50.944;4.034;2022-11-15T09:29:02;10.27;;;2.13;;
31130;SDS011;20292;50.944;4.034;2022-11-15T09:31:28;14.15;;;2.30;;
31130;SDS011;20292;50.944;4.034;2022-11-15T09:33:56;11.73;;;2.50;;
31130;SDS011;20292;50.944;4.034;2022-11-15T09:36:22;7.22;;;1.88;;
31130;SDS011;20292;50.944;4.034;2022-11-15T09:38:48;7.63;;;2.15;;
31130;SDS011;20292;50.944;4.034;2022-11-15T09:43:46;8.93;;;2.00;;
31130;SDS011;20292;50.944;4.034;2022-11-15T09:51:24;9.82;;;2.10;;
31130;SDS011;20292;50.944;4.034;2022-11-15T09:56:38;11.90;;;2.20;;
31130;SDS011;20292;50.944;4.034;2022-11-15T09:59:16;9.82;;;1.63;;
31130;SDS011;20292;50.944;4.034;2022-11-15T10:04:29;9.15;;;2.00;;
31130;SDS011;20292;50.944;4.034;2022-11-15T10:09:29;7.78;;;1.85;;
31130;SDS011;20292;50.944;4.034;2022-11-15T10:12:15;10.23;;;1.90;;
31130;SDS011;20292;50.944;4.034;2022-11-15T10:14:42;9.50;;;2.28;;
31130;SDS011;20292;50.944;4.034;2022-11-15T10:17:22;5.93;;;2.10;;
31130;SDS011;20292;50.944;4.034;2022-11-15T10:20:17;10.60;;;2.47;;
31130;SDS011;20292;50.944;4.034;2022-11-15T10:23:02;13.40;;;2.20;;
31130;SDS011;20292;50.944;4.034;2022-11-15T10:25:32;10.93;;;2.15;;
31130;SDS011;20292;50.944;4.034;2022-11-15T10:33:10;8.32;;;1.90;;
31130;SDS011;20292;50.944;4.034;2022-11-15T10:36:35;9.50;;;1.80;;
31130;SDS011;20292;50.944;4.034;2022-11-15T10:41:22;9.25;;;1.90;;
31130;SDS011;20292;50.944;4.034;2022-11-15T10:46:32;9.18;;;2.05;;
31130;SDS011;20292;50.944;4.034;2022-11-15T10:54:37;11.60;;;1.80;;
31130;SDS011;20292;50.944;4.034;2022-11-15T10:57:13;9.52;;;1.95;;
31130;SDS011;20292;50.944;4.034;2022-11-15T10:59:45;9.10;;;1.98;;
31130;SDS011;20292;50.944;4.034;2022-11-15T11:04:59;14.85;;;2.25;;
31130;SDS011;20292;50.944;4.034;2022-11-15T11:07:26;8.23;;;1.73;;
31130;SDS011;20292;50.944;4.034;2022-11-15T11:10:35;8.82;;;1.67;;
31130;SDS011;20292;50.944;4.034;2022-11-15T11:12:43;8.95;;;2.38;;
31130;SDS011;20292;50.944;4.034;2022-11-15T11:15:10;8.93;;;1.80;;
31130;SDS011;20292;50.944;4.034;2022-11-15T11:23:19;9.60;;;1.98;;
31130;SDS011;20292;50.944;4.034;2022-11-15T11:31:50;6.10;;;1.73;;
31130;SDS011;20292;50.944;4.034;2022-11-15T11:42:51;8.52;;;2.03;;
31130;SDS011;20292;50.944;4.034;2022-11-15T11:48:13;10.75;;;2.03;;
31130;SDS011;20292;50.944;4.034;2022-11-15T11:50:48;9.88;;;2.15;;
31130;SDS011;20292;50.944;4.034;2022-11-15T11:56:07;6.93;;;1.75;;
31130;SDS011;20292;50.944;4.034;2022-11-15T11:58:54;11.40;;;2.35;;
31130;SDS011;20292;50.944;4.034;2022-11-15T12:01:41;9.52;;;2.10;;
31130;SDS011;20292;50.944;4.034;2022-11-15T12:04:16;9.35;;;2.10;;
31130;SDS011;20292;50.944;4.034;2022-11-15T12:06:54;8.55;;;1.67;;
31130;SDS011;20292;50.944;4.034;2022-11-15T12:09:38;9.02;;;1.95;;
31130;SDS011;20292;50.944;4.034;2022-11-15T12:14:43;5.82;;;1.63;;
31130;SDS011;20292;50.944;4.034;2022-11-15T12:17:13;9.57;;;1.92;;
31130;SDS011;20292;50.944;4.034;2022-11-15T12:19:42;8.38;;;2.08;;
31130;SDS011;20292;50.944;4.034;2022-11-15T12:24:46;8.77;;;1.80;;
31130;SDS011;20292;50.944;4.034;2022-11-15T12:29:51;6.13;;;1.33;;
31130;SDS011;20292;50.944;4.034;2022-11-15T12:32:36;4.82;;;1.45;;
31130;SDS011;20292;50.944;4.034;2022-11-15T12:35:04;4.90;;;1.50;;
31130;SDS011;20292;50.944;4.034;2022-11-15T12:37:49;9.10;;;2.25;;
31130;SDS011;20292;50.944;4.034;2022-11-15T12:42:59;6.13;;;1.52;;
31130;SDS011;20292;50.944;4.034;2022-11-15T13:06:34;8.50;;;1.58;;
31130;SDS011;20292;50.944;4.034;2022-11-15T13:11:57;7.05;;;1.83;;
31130;SDS011;20292;50.944;4.034;2022-11-15T13:14:57;7.20;;;1.70;;
31130;SDS011;20292;50.944;4.034;2022-11-15T13:19:58;4.75;;;1.80;;
31130;SDS011;20292;50.944;4.034;2022-11-15T13:22:26;6.47;;;1.77;;
31130;SDS011;20292;50.944;4.034;2022-11-15T13:27:57;7.68;;;1.65;;
31130;SDS011;20292;50.944;4.034;2022-11-15T13:30:28;4.22;;;1.60;;
31130;SDS011;20292;50.944;4.034;2022-11-15T13:32:55;6.05;;;1.58;;
31130;SDS011;20292;50.944;4.034;2022-11-15T13:35:24;5.60;;;1.60;;
31130;SDS011;20292;50.944;4.034;2022-11-15T13:37:52;6.95;;;1.60;;
31130;SDS011;20292;50.944;4.034;2022-11-15T13:40:24;7.25;;;1.83;;
31130;SDS011;20292;50.944;4.034;2022-11-15T13:42:55;3.97;;;1.77;;
31130;SDS011;20292;50.944;4.034;2022-11-15T13:45:23;8.43;;;1.58;;
31130;SDS011;20292;50.944;4.034;2022-11-15T13:47:55;4.72;;;1.58;;
31130;SDS011;20292;50.944;4.034;2022-11-15T13:50:25;10.38;;;1.65;;
31130;SDS011;20292;50.944;4.034;2022-11-15T13:52:56;7.28;;;3.00;;
31130;SDS011;20292;50.944;4.034;2022-11-15T13:55:24;6.68;;;1.60;;
31130;SDS011;20292;50.944;4.034;2022-11-15T14:00:24;5.55;;;1.90;;
31130;SDS011;20292;50.944;4.034;2022-11-15T14:02:50;3.08;;;1.50;;
31130;SDS011;20292;50.944;4.034;2022-11-15T14:05:18;3.72;;;1.52;;
31130;SDS011;20292;50.944;4.034;2022-11-15T14:10:37;3.85;;;1.83;;
31130;SDS011;20292;50.944;4.034;2022-11-15T14:13:09;3.40;;;1.83;;
31130;SDS011;20292;50.944;4.034;2022-11-15T14:18:56;6.28;;;1.95;;
31130;SDS011;20292;50.944;4.034;2022-11-15T14:21:22;4.30;;;1.90;;
31130;SDS011;20292;50.944;4.034;2022-11-15T14:23:48;3.15;;;1.80;;
31130;SDS011;20292;50.944;4.034;2022-11-15T14:26:27;5.38;;;2.50;;
31130;SDS011;20292;50.944;4.034;2022-11-15T14:28:54;9.07;;;2.00;;
31130;SDS011;20292;50.944;4.034;2022-11-15T14:31:20;10.18;;;2.20;;
31130;SDS011;20292;50.944;4.034;2022-11-15T14:33:46;3.72;;;2.17;;
31130;SDS011;20292;50.944;4.034;2022-11-15T14:36:13;23.08;;;16.15;;
31130;SDS011;20292;50.944;4.034;2022-11-15T14:38:44;4.30;;;2.22;;
31130;SDS011;20292;50.944;4.034;2022-11-15T14:41:12;7.13;;;2.17;;
31130;SDS011;20292;50.944;4.034;2022-11-15T14:43:43;8.18;;;2.50;;
31130;SDS011;20292;50.944;4.034;2022-11-15T14:46:09;10.02;;;2.72;;
31130;SDS011;20292;50.944;4.034;2022-11-15T14:48:35;8.15;;;2.47;;
31130;SDS011;20292;50.944;4.034;2022-11-15T14:51:01;5.85;;;3.40;;
31130;SDS011;20292;50.944;4.034;2022-11-15T14:53:27;6.88;;;2.53;;
31130;SDS011;20292;50.944;4.034;2022-11-15T14:55:52;6.03;;;2.30;;
31130;SDS011;20292;50.944;4.034;2022-11-15T14:58:18;9.75;;;2.38;;
31130;SDS011;20292;50.944;4.034;2022-11-15T15:00:43;6.80;;;2.38;;
31130;SDS011;20292;50.944;4.034;2022-11-15T15:03:09;6.13;;;2.85;;
31130;SDS011;20292;50.944;4.034;2022-11-15T15:05:39;8.73;;;2.80;;
31130;SDS011;20292;50.944;4.034;2022-11-15T15:08:07;5.63;;;2.80;;
31130;SDS011;20292;50.944;4.034;2022-11-15T15:10:34;6.20;;;2.53;;
31130;SDS011;20292;50.944;4.034;2022-11-15T15:13:02;9.18;;;2.88;;
31130;SDS011;20292;50.944;4.034;2022-11-15T15:15:36;6.45;;;3.05;;
31130;SDS011;20292;50.944;4.034;2022-11-15T15:18:03;6.07;;;3.05;;
31130;SDS011;20292;50.944;4.034;2022-11-15T15:20:30;6.95;;;3.03;;
31130;SDS011;20292;50.944;4.034;2022-11-15T15:22:56;8.18;;;3.13;;
31130;SDS011;20292;50.944;4.034;2022-11-15T15:25:30;6.63;;;2.80;;
31130;SDS011;20292;50.944;4.034;2022-11-15T15:27:58;8.07;;;3.22;;
31130;SDS011;20292;50.944;4.034;2022-11-15T15:30:24;7.15;;;3.30;;
31130;SDS011;20292;50.944;4.034;2022-11-15T15:32:51;10.50;;;2.92;;
31130;SDS011;20292;50.944;4.034;2022-11-15T15:35:18;6.68;;;3.03;;
31130;SDS011;20292;50.944;4.034;2022-11-15T15:37:45;7.78;;;3.78;;
31130;SDS011;20292;50.944;4.034;2022-11-15T15:40:16;8.18;;;3.10;;
31130;SDS011;20292;50.944;4.034;2022-11-15T15:42:47;10.48;;;5.10;;
31130;SDS011;20292;50.944;4.034;2022-11-15T15:45:13;7.32;;;3.13;;
31130;SDS011;20292;50.944;4.034;2022-11-15T15:47:40;7.45;;;3.33;;
31130;SDS011;20292;50.944;4.034;2022-11-15T15:52:47;8.20;;;3.35;;
31130;SDS011;20292;50.944;4.034;2022-11-15T15:55:13;5.32;;;3.50;;
31130;SDS011;20292;50.944;4.034;2022-11-15T15:57:38;9.20;;;3.97;;
31130;SDS011;20292;50.944;4.034;2022-11-15T16:00:04;8.68;;;3.80;;
31130;SDS011;20292;50.944;4.034;2022-11-15T16:02:30;7.88;;;3.58;;
31130;SDS011;20292;50.944;4.034;2022-11-15T16:04:56;6.05;;;2.83;;
31130;SDS011;20292;50.944;4.034;2022-11-15T16:07:22;6.07;;;3.50;;
31130;SDS011;20292;50.944;4.034;2022-11-15T16:09:53;6.88;;;4.20;;
31130;SDS011;20292;50.944;4.034;2022-11-15T16:12:25;10.27;;;4.28;;
31130;SDS011;20292;50.944;4.034;2022-11-15T16:14:51;6.68;;;3.25;;
31130;SDS011;20292;50.944;4.034;2022-11-15T16:17:18;11.38;;;3.50;;
31130;SDS011;20292;50.944;4.034;2022-11-15T16:19:48;6.63;;;3.30;;
31130;SDS011;20292;50.944;4.034;2022-11-15T16:22:14;8.32;;;3.67;;
31130;SDS011;20292;50.944;4.034;2022-11-15T16:24:39;5.40;;;3.50;;
31130;SDS011;20292;50.944;4.034;2022-11-15T16:27:05;6.50;;;3.40;;
31130;SDS011;20292;50.944;4.034;2022-11-15T16:29:35;8.48;;;3.70;;
31130;SDS011;20292;50.944;4.034;2022-11-15T16:32:01;7.55;;;3.70;;
31130;SDS011;20292;50.944;4.034;2022-11-15T16:34:26;7.20;;;3.78;;
31130;SDS011;20292;50.944;4.034;2022-11-15T16:36:52;7.47;;;4.43;;
31130;SDS011;20292;50.944;4.034;2022-11-15T16:39:19;7.85;;;4.22;;
31130;SDS011;20292;50.944;4.034;2022-11-15T16:41:44;6.25;;;4.07;;
31130;SDS011;20292;50.944;4.034;2022-11-15T16:44:12;6.07;;;3.70;;
31130;SDS011;20292;50.944;4.034;2022-11-15T16:46:40;5.03;;;3.70;;
31130;SDS011;20292;50.944;4.034;2022-11-15T16:49:13;7.00;;;4.03;;
31130;SDS011;20292;50.944;4.034;2022-11-15T16:51:40;6.20;;;3.67;;
31130;SDS011;20292;50.944;4.034;2022-11-15T16:54:06;4.75;;;3.60;;
31130;SDS011;20292;50.944;4.034;2022-11-15T16:56:32;5.20;;;3.33;;
31130;SDS011;20292;50.944;4.034;2022-11-15T16:58:58;4.45;;;3.33;;